sensor_id;sensor_type;location;lat;lon;timestamp;P1;durP1;ratioP1;P2;durP2;ratioP2
42632;SDS011;28261;53.304;-6.284;2024-03-07T00:01:46;14.27;;;1.65;;
42632;SDS011;28261;53.304;-6.284;2024-03-07T00:03:50;11.57;;;1.60;;
42632;SDS011;28261;53.304;-6.284;2024-03-07T00:05:54;12.95;;;2.17;;
42632;SDS011;28261;53.304;-6.284;2024-03-07T00:07:58;14.93;;;2.03;;
42632;SDS011;28261;53.304;-6.284;2024-03-07T00:10:02;10.73;;;1.30;;
42632;SDS011;28261;53.304;-6.284;2024-03-07T00:12:09;10.25;;;1.80;;
42632;SDS011;28261;53.304;-6.284;2024-03-07T00:16:19;15.70;;;4.80;;
42632;SDS011;28261;53.304;-6.284;2024-03-07T00:18:23;13.73;;;1.70;;
42632;SDS011;28261;53.304;-6.284;2024-03-07T00:20:27;13.63;;;1.95;;
42632;SDS011;28261;53.304;-6.284;2024-03-07T00:22:31;9.05;;;2.40;;
42632;SDS011;28261;53.304;-6.284;2024-03-07T00:24:35;14.10;;;1.65;;
42632;SDS011;28261;53.304;-6.284;2024-03-07T00:26:40;11.80;;;2.55;;
42632;SDS011;28261;53.304;-6.284;2024-03-07T00:28:44;13.07;;;1.45;;
42632;SDS011;28261;53.304;-6.284;2024-03-07T00:30:50;12.15;;;2.35;;
42632;SDS011;28261;53.304;-6.284;2024-03-07T00:32:54;12.30;;;1.77;;
42632;SDS011;28261;53.304;-6.284;2024-03-07T00:34:58;6.55;;;1.40;;
42632;SDS011;28261;53.304;-6.284;2024-03-07T00:37:02;11.80;;;1.65;;
42632;SDS011;28261;53.304;-6.284;2024-03-07T00:39:06;12.30;;;1.52;;
42632;SDS011;28261;53.304;-6.284;2024-03-07T00:41:13;11.18;;;1.42;;
42632;SDS011;28261;53.304;-6.284;2024-03-07T00:43:19;8.52;;;1.15;;
42632;SDS011;28261;53.304;-6.284;2024-03-07T00:45:24;18.40;;;2.40;;
42632;SDS011;28261;53.304;-6.284;2024-03-07T00:47:29;11.48;;;1.58;;
42632;SDS011;28261;53.304;-6.284;2024-03-07T00:49:34;12.27;;;1.55;;
42632;SDS011;28261;53.304;-6.284;2024-03-07T00:51:38;7.00;;;1.15;;
42632;SDS011;28261;53.304;-6.284;2024-03-07T00:53:41;7.82;;;1.48;;
42632;SDS011;28261;53.304;-6.284;2024-03-07T00:55:46;11.35;;;1.33;;
42632;SDS011;28261;53.304;-6.284;2024-03-07T00:57:50;14.93;;;1.52;;
42632;SDS011;28261;53.304;-6.284;2024-03-07T00:59:54;11.20;;;1.70;;
42632;SDS011;28261;53.304;-6.284;2024-03-07T01:01:58;10.93;;;1.65;;
42632;SDS011;28261;53.304;-6.284;2024-03-07T01:04:03;13.63;;;2.00;;
42632;SDS011;28261;53.304;-6.284;2024-03-07T01:06:08;13.43;;;1.85;;
42632;SDS011;28261;53.304;-6.284;2024-03-07T01:08:12;13.68;;;1.50;;
42632;SDS011;28261;53.304;-6.284;2024-03-07T01:10:16;16.95;;;2.30;;
42632;SDS011;28261;53.304;-6.284;2024-03-07T01:12:20;13.73;;;1.95;;
42632;SDS011;28261;53.304;-6.284;2024-03-07T01:14:26;15.70;;;1.88;;
42632;SDS011;28261;53.304;-6.284;2024-03-07T01:16:30;9.38;;;2.53;;
42632;SDS011;28261;53.304;-6.284;2024-03-07T01:18:34;8.50;;;1.90;;
42632;SDS011;28261;53.304;-6.284;2024-03-07T01:20:39;10.07;;;1.30;;
42632;SDS011;28261;53.304;-6.284;2024-03-07T01:22:43;11.73;;;1.50;;
42632;SDS011;28261;53.304;-6.284;2024-03-07T01:24:47;11.20;;;1.63;;
42632;SDS011;28261;53.304;-6.284;2024-03-07T01:26:52;11.35;;;2.25;;
42632;SDS011;28261;53.304;-6.284;2024-03-07T01:28:56;15.23;;;1.90;;
42632;SDS011;28261;53.304;-6.284;2024-03-07T01:31:01;10.68;;;1.63;;
42632;SDS011;28261;53.304;-6.284;2024-03-07T01:33:05;11.88;;;1.90;;
42632;SDS011;28261;53.304;-6.284;2024-03-07T01:35:09;15.32;;;2.08;;
42632;SDS011;28261;53.304;-6.284;2024-03-07T01:37:14;11.77;;;1.48;;
42632;SDS011;28261;53.304;-6.284;2024-03-07T01:39:17;8.63;;;1.83;;
42632;SDS011;28261;53.304;-6.284;2024-03-07T01:41:21;10.93;;;1.65;;
42632;SDS011;28261;53.304;-6.284;2024-03-07T01:43:26;8.65;;;1.85;;
42632;SDS011;28261;53.304;-6.284;2024-03-07T01:45:33;7.82;;;1.65;;
42632;SDS011;28261;53.304;-6.284;2024-03-07T01:47:39;9.10;;;1.75;;
42632;SDS011;28261;53.304;-6.284;2024-03-07T01:49:42;12.30;;;1.75;;
42632;SDS011;28261;53.304;-6.284;2024-03-07T01:51:45;13.85;;;1.73;;
42632;SDS011;28261;53.304;-6.284;2024-03-07T01:53:51;8.02;;;1.35;;
42632;SDS011;28261;53.304;-6.284;2024-03-07T01:55:55;8.02;;;1.65;;
42632;SDS011;28261;53.304;-6.284;2024-03-07T01:58:02;9.52;;;1.95;;
42632;SDS011;28261;53.304;-6.284;2024-03-07T02:00:08;5.03;;;1.35;;
42632;SDS011;28261;53.304;-6.284;2024-03-07T02:02:12;15.35;;;2.00;;
42632;SDS011;28261;53.304;-6.284;2024-03-07T02:04:17;7.97;;;1.10;;
42632;SDS011;28261;53.304;-6.284;2024-03-07T02:06:20;7.75;;;1.30;;
42632;SDS011;28261;53.304;-6.284;2024-03-07T02:08:25;10.15;;;1.65;;
42632;SDS011;28261;53.304;-6.284;2024-03-07T02:10:30;15.80;;;2.00;;
42632;SDS011;28261;53.304;-6.284;2024-03-07T02:14:38;17.80;;;1.77;;
42632;SDS011;28261;53.304;-6.284;2024-03-07T02:16:40;15.55;;;2.30;;
42632;SDS011;28261;53.304;-6.284;2024-03-07T02:18:44;10.43;;;2.22;;
42632;SDS011;28261;53.304;-6.284;2024-03-07T02:20:50;6.70;;;1.33;;
42632;SDS011;28261;53.304;-6.284;2024-03-07T02:22:55;10.50;;;1.55;;
42632;SDS011;28261;53.304;-6.284;2024-03-07T02:24:59;11.55;;;2.40;;
42632;SDS011;28261;53.304;-6.284;2024-03-07T02:27:02;14.70;;;1.98;;
42632;SDS011;28261;53.304;-6.284;2024-03-07T02:29:07;12.18;;;2.08;;
42632;SDS011;28261;53.304;-6.284;2024-03-07T02:31:11;11.88;;;1.65;;
42632;SDS011;28261;53.304;-6.284;2024-03-07T02:33:16;12.23;;;2.17;;
42632;SDS011;28261;53.304;-6.284;2024-03-07T02:35:20;12.95;;;1.60;;
42632;SDS011;28261;53.304;-6.284;2024-03-07T02:37:27;11.15;;;2.53;;
42632;SDS011;28261;53.304;-6.284;2024-03-07T02:39:31;12.27;;;2.10;;
42632;SDS011;28261;53.304;-6.284;2024-03-07T02:41:35;16.27;;;1.90;;
42632;SDS011;28261;53.304;-6.284;2024-03-07T02:43:39;14.40;;;1.98;;
42632;SDS011;28261;53.304;-6.284;2024-03-07T02:45:41;11.48;;;2.22;;
42632;SDS011;28261;53.304;-6.284;2024-03-07T02:47:45;11.65;;;1.65;;
42632;SDS011;28261;53.304;-6.284;2024-03-07T02:49:50;11.63;;;2.47;;
42632;SDS011;28261;53.304;-6.284;2024-03-07T02:51:53;12.07;;;2.85;;
42632;SDS011;28261;53.304;-6.284;2024-03-07T02:53:59;13.77;;;1.77;;
42632;SDS011;28261;53.304;-6.284;2024-03-07T02:56:02;11.45;;;1.77;;
42632;SDS011;28261;53.304;-6.284;2024-03-07T02:58:09;11.63;;;2.40;;
42632;SDS011;28261;53.304;-6.284;2024-03-07T03:00:13;11.05;;;2.00;;
42632;SDS011;28261;53.304;-6.284;2024-03-07T03:02:22;11.05;;;2.28;;
42632;SDS011;28261;53.304;-6.284;2024-03-07T03:04:27;9.48;;;1.85;;
42632;SDS011;28261;53.304;-6.284;2024-03-07T03:06:31;8.32;;;1.83;;
42632;SDS011;28261;53.304;-6.284;2024-03-07T03:08:34;8.45;;;1.88;;
42632;SDS011;28261;53.304;-6.284;2024-03-07T03:10:40;10.48;;;2.13;;
42632;SDS011;28261;53.304;-6.284;2024-03-07T03:12:44;9.73;;;2.17;;
42632;SDS011;28261;53.304;-6.284;2024-03-07T03:14:49;10.10;;;1.80;;
42632;SDS011;28261;53.304;-6.284;2024-03-07T03:16:55;17.50;;;2.13;;
42632;SDS011;28261;53.304;-6.284;2024-03-07T03:18:58;14.57;;;2.40;;
42632;SDS011;28261;53.304;-6.284;2024-03-07T03:21:01;12.20;;;2.10;;
42632;SDS011;28261;53.304;-6.284;2024-03-07T03:23:06;18.17;;;2.08;;
42632;SDS011;28261;53.304;-6.284;2024-03-07T03:25:22;14.25;;;2.08;;
42632;SDS011;28261;53.304;-6.284;2024-03-07T03:27:28;10.07;;;2.38;;
42632;SDS011;28261;53.304;-6.284;2024-03-07T03:29:32;17.58;;;3.42;;
42632;SDS011;28261;53.304;-6.284;2024-03-07T03:31:36;13.90;;;2.30;;
42632;SDS011;28261;53.304;-6.284;2024-03-07T03:33:40;11.68;;;2.50;;
42632;SDS011;28261;53.304;-6.284;2024-03-07T03:35:44;7.55;;;2.15;;
42632;SDS011;28261;53.304;-6.284;2024-03-07T03:37:49;19.55;;;2.30;;
42632;SDS011;28261;53.304;-6.284;2024-03-07T03:39:53;10.85;;;1.95;;
42632;SDS011;28261;53.304;-6.284;2024-03-07T03:41:57;12.40;;;2.40;;
42632;SDS011;28261;53.304;-6.284;2024-03-07T03:44:03;12.23;;;2.72;;
42632;SDS011;28261;53.304;-6.284;2024-03-07T03:46:09;7.05;;;1.20;;
42632;SDS011;28261;53.304;-6.284;2024-03-07T03:48:14;15.73;;;2.83;;
42632;SDS011;28261;53.304;-6.284;2024-03-07T03:50:18;16.02;;;2.65;;
42632;SDS011;28261;53.304;-6.284;2024-03-07T03:52:21;13.07;;;1.70;;
42632;SDS011;28261;53.304;-6.284;2024-03-07T03:54:24;10.27;;;2.08;;
42632;SDS011;28261;53.304;-6.284;2024-03-07T03:56:29;11.65;;;3.03;;
42632;SDS011;28261;53.304;-6.284;2024-03-07T03:58:34;16.75;;;2.22;;
42632;SDS011;28261;53.304;-6.284;2024-03-07T04:00:39;8.02;;;2.33;;
42632;SDS011;28261;53.304;-6.284;2024-03-07T04:02:43;14.07;;;2.60;;
42632;SDS011;28261;53.304;-6.284;2024-03-07T04:04:50;11.70;;;2.60;;
42632;SDS011;28261;53.304;-6.284;2024-03-07T04:06:54;6.40;;;1.35;;
42632;SDS011;28261;53.304;-6.284;2024-03-07T04:08:59;16.15;;;2.35;;
42632;SDS011;28261;53.304;-6.284;2024-03-07T04:11:03;16.20;;;2.30;;
42632;SDS011;28261;53.304;-6.284;2024-03-07T04:13:12;18.77;;;2.80;;
42632;SDS011;28261;53.304;-6.284;2024-03-07T04:15:16;11.75;;;2.63;;
42632;SDS011;28261;53.304;-6.284;2024-03-07T04:17:22;9.98;;;2.25;;
42632;SDS011;28261;53.304;-6.284;2024-03-07T04:19:27;17.63;;;2.42;;
42632;SDS011;28261;53.304;-6.284;2024-03-07T04:21:34;15.82;;;2.00;;
42632;SDS011;28261;53.304;-6.284;2024-03-07T04:23:39;11.65;;;2.10;;
42632;SDS011;28261;53.304;-6.284;2024-03-07T04:25:43;17.40;;;2.10;;
42632;SDS011;28261;53.304;-6.284;2024-03-07T04:27:47;14.20;;;2.03;;
42632;SDS011;28261;53.304;-6.284;2024-03-07T04:29:51;19.02;;;2.35;;
42632;SDS011;28261;53.304;-6.284;2024-03-07T04:31:55;13.65;;;2.08;;
42632;SDS011;28261;53.304;-6.284;2024-03-07T04:34:01;11.75;;;1.70;;
42632;SDS011;28261;53.304;-6.284;2024-03-07T04:36:05;21.98;;;2.42;;
42632;SDS011;28261;53.304;-6.284;2024-03-07T04:38:10;11.52;;;2.63;;
42632;SDS011;28261;53.304;-6.284;2024-03-07T04:40:17;14.52;;;2.42;;
42632;SDS011;28261;53.304;-6.284;2024-03-07T04:42:21;13.35;;;2.20;;
42632;SDS011;28261;53.304;-6.284;2024-03-07T04:44:24;8.88;;;1.98;;
42632;SDS011;28261;53.304;-6.284;2024-03-07T04:46:28;13.55;;;1.70;;
42632;SDS011;28261;53.304;-6.284;2024-03-07T04:48:32;11.88;;;2.13;;
42632;SDS011;28261;53.304;-6.284;2024-03-07T04:50:38;10.45;;;1.90;;
42632;SDS011;28261;53.304;-6.284;2024-03-07T04:52:42;12.15;;;2.15;;
42632;SDS011;28261;53.304;-6.284;2024-03-07T04:56:51;6.53;;;1.73;;
42632;SDS011;28261;53.304;-6.284;2024-03-07T04:58:56;9.48;;;2.05;;
42632;SDS011;28261;53.304;-6.284;2024-03-07T05:00:59;14.57;;;2.00;;
42632;SDS011;28261;53.304;-6.284;2024-03-07T05:03:04;11.30;;;2.28;;
42632;SDS011;28261;53.304;-6.284;2024-03-07T05:05:08;12.50;;;2.38;;
42632;SDS011;28261;53.304;-6.284;2024-03-07T05:07:14;13.18;;;3.00;;
42632;SDS011;28261;53.304;-6.284;2024-03-07T05:09:17;12.63;;;2.35;;
42632;SDS011;28261;53.304;-6.284;2024-03-07T05:11:28;13.40;;;2.05;;
42632;SDS011;28261;53.304;-6.284;2024-03-07T05:13:32;10.23;;;2.75;;
42632;SDS011;28261;53.304;-6.284;2024-03-07T05:15:37;21.17;;;2.55;;
42632;SDS011;28261;53.304;-6.284;2024-03-07T05:17:41;10.07;;;2.00;;
42632;SDS011;28261;53.304;-6.284;2024-03-07T05:19:46;9.43;;;2.00;;
42632;SDS011;28261;53.304;-6.284;2024-03-07T05:21:51;11.38;;;2.65;;
42632;SDS011;28261;53.304;-6.284;2024-03-07T05:23:57;11.50;;;2.47;;
42632;SDS011;28261;53.304;-6.284;2024-03-07T05:26:00;11.88;;;1.83;;
42632;SDS011;28261;53.304;-6.284;2024-03-07T05:28:04;12.80;;;2.35;;
42632;SDS011;28261;53.304;-6.284;2024-03-07T05:30:09;7.57;;;2.03;;
42632;SDS011;28261;53.304;-6.284;2024-03-07T05:32:19;8.02;;;2.00;;
42632;SDS011;28261;53.304;-6.284;2024-03-07T05:34:23;11.10;;;2.72;;
42632;SDS011;28261;53.304;-6.284;2024-03-07T05:36:30;15.38;;;2.28;;
42632;SDS011;28261;53.304;-6.284;2024-03-07T05:38:34;14.40;;;2.10;;
42632;SDS011;28261;53.304;-6.284;2024-03-07T05:40:40;13.02;;;1.90;;
42632;SDS011;28261;53.304;-6.284;2024-03-07T05:42:45;11.68;;;1.88;;
42632;SDS011;28261;53.304;-6.284;2024-03-07T05:44:49;13.23;;;2.08;;
42632;SDS011;28261;53.304;-6.284;2024-03-07T05:46:53;10.77;;;2.15;;
42632;SDS011;28261;53.304;-6.284;2024-03-07T05:48:57;9.32;;;1.90;;
42632;SDS011;28261;53.304;-6.284;2024-03-07T05:51:02;7.30;;;1.73;;
42632;SDS011;28261;53.304;-6.284;2024-03-07T05:53:06;14.05;;;2.15;;
42632;SDS011;28261;53.304;-6.284;2024-03-07T05:55:10;11.55;;;1.90;;
42632;SDS011;28261;53.304;-6.284;2024-03-07T05:57:15;16.65;;;3.03;;
42632;SDS011;28261;53.304;-6.284;2024-03-07T05:59:19;12.88;;;1.95;;
42632;SDS011;28261;53.304;-6.284;2024-03-07T06:01:23;15.32;;;2.70;;
42632;SDS011;28261;53.304;-6.284;2024-03-07T06:03:29;16.92;;;2.17;;
42632;SDS011;28261;53.304;-6.284;2024-03-07T06:05:34;7.70;;;2.08;;
42632;SDS011;28261;53.304;-6.284;2024-03-07T06:07:37;15.30;;;3.08;;
42632;SDS011;28261;53.304;-6.284;2024-03-07T06:09:42;12.00;;;2.70;;
42632;SDS011;28261;53.304;-6.284;2024-03-07T06:11:46;9.55;;;1.95;;
42632;SDS011;28261;53.304;-6.284;2024-03-07T06:15:56;21.13;;;2.60;;
42632;SDS011;28261;53.304;-6.284;2024-03-07T06:17:59;17.48;;;2.45;;
42632;SDS011;28261;53.304;-6.284;2024-03-07T06:20:03;8.50;;;2.25;;
42632;SDS011;28261;53.304;-6.284;2024-03-07T06:22:25;8.27;;;2.65;;
42632;SDS011;28261;53.304;-6.284;2024-03-07T06:24:29;17.33;;;2.92;;
42632;SDS011;28261;53.304;-6.284;2024-03-07T06:26:34;9.57;;;2.53;;
42632;SDS011;28261;53.304;-6.284;2024-03-07T06:28:48;8.73;;;2.55;;
42632;SDS011;28261;53.304;-6.284;2024-03-07T06:30:54;18.45;;;3.10;;
42632;SDS011;28261;53.304;-6.284;2024-03-07T06:32:58;9.13;;;2.10;;
42632;SDS011;28261;53.304;-6.284;2024-03-07T06:35:02;7.15;;;1.92;;
42632;SDS011;28261;53.304;-6.284;2024-03-07T06:37:06;12.27;;;2.53;;
42632;SDS011;28261;53.304;-6.284;2024-03-07T06:39:10;9.63;;;2.45;;
42632;SDS011;28261;53.304;-6.284;2024-03-07T06:41:16;15.02;;;2.90;;
42632;SDS011;28261;53.304;-6.284;2024-03-07T06:43:20;9.15;;;2.75;;
42632;SDS011;28261;53.304;-6.284;2024-03-07T06:45:24;12.95;;;3.22;;
42632;SDS011;28261;53.304;-6.284;2024-03-07T06:47:30;11.70;;;3.22;;
42632;SDS011;28261;53.304;-6.284;2024-03-07T06:49:49;9.80;;;3.10;;
42632;SDS011;28261;53.304;-6.284;2024-03-07T06:51:54;9.20;;;3.45;;
42632;SDS011;28261;53.304;-6.284;2024-03-07T06:53:58;12.52;;;3.45;;
42632;SDS011;28261;53.304;-6.284;2024-03-07T06:56:02;10.50;;;3.28;;
42632;SDS011;28261;53.304;-6.284;2024-03-07T06:58:09;9.13;;;3.67;;
42632;SDS011;28261;53.304;-6.284;2024-03-07T07:00:13;10.57;;;3.67;;
42632;SDS011;28261;53.304;-6.284;2024-03-07T07:02:21;14.75;;;3.03;;
42632;SDS011;28261;53.304;-6.284;2024-03-07T07:04:26;9.93;;;3.33;;
42632;SDS011;28261;53.304;-6.284;2024-03-07T07:06:45;13.63;;;3.47;;
42632;SDS011;28261;53.304;-6.284;2024-03-07T07:08:49;14.60;;;3.80;;
42632;SDS011;28261;53.304;-6.284;2024-03-07T07:10:53;7.63;;;3.90;;
42632;SDS011;28261;53.304;-6.284;2024-03-07T07:12:58;11.18;;;3.42;;
42632;SDS011;28261;53.304;-6.284;2024-03-07T07:15:01;7.65;;;3.42;;
42632;SDS011;28261;53.304;-6.284;2024-03-07T07:17:06;12.73;;;2.80;;
42632;SDS011;28261;53.304;-6.284;2024-03-07T07:19:12;12.35;;;3.45;;
42632;SDS011;28261;53.304;-6.284;2024-03-07T07:21:16;8.45;;;3.15;;
42632;SDS011;28261;53.304;-6.284;2024-03-07T07:23:21;10.82;;;3.65;;
42632;SDS011;28261;53.304;-6.284;2024-03-07T07:25:25;7.95;;;3.45;;
42632;SDS011;28261;53.304;-6.284;2024-03-07T07:27:29;12.82;;;3.42;;
42632;SDS011;28261;53.304;-6.284;2024-03-07T07:29:33;10.30;;;3.97;;
42632;SDS011;28261;53.304;-6.284;2024-03-07T07:31:37;10.75;;;4.10;;
42632;SDS011;28261;53.304;-6.284;2024-03-07T07:33:41;10.00;;;4.47;;
42632;SDS011;28261;53.304;-6.284;2024-03-07T07:35:46;16.90;;;4.65;;
42632;SDS011;28261;53.304;-6.284;2024-03-07T07:37:51;13.85;;;4.85;;
42632;SDS011;28261;53.304;-6.284;2024-03-07T07:39:59;14.32;;;3.88;;
42632;SDS011;28261;53.304;-6.284;2024-03-07T07:42:03;15.00;;;4.68;;
42632;SDS011;28261;53.304;-6.284;2024-03-07T07:44:11;12.15;;;4.05;;
42632;SDS011;28261;53.304;-6.284;2024-03-07T07:46:16;9.32;;;4.10;;
42632;SDS011;28261;53.304;-6.284;2024-03-07T07:48:20;11.52;;;3.75;;
42632;SDS011;28261;53.304;-6.284;2024-03-07T07:50:23;13.18;;;4.72;;
42632;SDS011;28261;53.304;-6.284;2024-03-07T07:52:28;8.73;;;3.70;;
42632;SDS011;28261;53.304;-6.284;2024-03-07T07:54:32;9.60;;;3.90;;
42632;SDS011;28261;53.304;-6.284;2024-03-07T07:56:37;8.77;;;3.95;;
42632;SDS011;28261;53.304;-6.284;2024-03-07T07:58:41;13.05;;;4.28;;
42632;SDS011;28261;53.304;-6.284;2024-03-07T08:00:46;10.50;;;4.63;;
42632;SDS011;28261;53.304;-6.284;2024-03-07T08:02:51;9.82;;;4.55;;
42632;SDS011;28261;53.304;-6.284;2024-03-07T08:04:55;11.40;;;4.05;;
42632;SDS011;28261;53.304;-6.284;2024-03-07T08:07:00;17.63;;;5.60;;
42632;SDS011;28261;53.304;-6.284;2024-03-07T08:09:03;16.63;;;5.68;;
42632;SDS011;28261;53.304;-6.284;2024-03-07T08:11:11;7.18;;;3.63;;
42632;SDS011;28261;53.304;-6.284;2024-03-07T08:13:18;9.35;;;4.38;;
42632;SDS011;28261;53.304;-6.284;2024-03-07T08:15:22;11.18;;;4.25;;
42632;SDS011;28261;53.304;-6.284;2024-03-07T08:17:26;10.85;;;5.13;;
42632;SDS011;28261;53.304;-6.284;2024-03-07T08:19:30;11.02;;;5.10;;
42632;SDS011;28261;53.304;-6.284;2024-03-07T08:21:34;12.38;;;5.07;;
42632;SDS011;28261;53.304;-6.284;2024-03-07T08:23:39;12.95;;;5.07;;
42632;SDS011;28261;53.304;-6.284;2024-03-07T08:25:43;13.25;;;5.07;;
42632;SDS011;28261;53.304;-6.284;2024-03-07T08:27:47;9.55;;;5.25;;
42632;SDS011;28261;53.304;-6.284;2024-03-07T08:29:52;11.77;;;5.20;;
42632;SDS011;28261;53.304;-6.284;2024-03-07T08:31:56;14.40;;;5.13;;
42632;SDS011;28261;53.304;-6.284;2024-03-07T08:34:00;13.65;;;5.32;;
42632;SDS011;28261;53.304;-6.284;2024-03-07T08:36:04;13.77;;;5.40;;
42632;SDS011;28261;53.304;-6.284;2024-03-07T08:38:12;11.60;;;4.40;;
42632;SDS011;28261;53.304;-6.284;2024-03-07T08:40:16;12.05;;;4.88;;
42632;SDS011;28261;53.304;-6.284;2024-03-07T08:42:22;8.88;;;4.63;;
42632;SDS011;28261;53.304;-6.284;2024-03-07T08:44:26;9.05;;;5.60;;
42632;SDS011;28261;53.304;-6.284;2024-03-07T08:46:31;10.10;;;4.75;;
42632;SDS011;28261;53.304;-6.284;2024-03-07T08:48:36;9.40;;;5.13;;
42632;SDS011;28261;53.304;-6.284;2024-03-07T08:50:40;9.05;;;4.95;;
42632;SDS011;28261;53.304;-6.284;2024-03-07T08:52:44;13.35;;;6.18;;
42632;SDS011;28261;53.304;-6.284;2024-03-07T08:54:49;9.50;;;4.82;;
42632;SDS011;28261;53.304;-6.284;2024-03-07T08:56:52;11.10;;;3.85;;
42632;SDS011;28261;53.304;-6.284;2024-03-07T08:58:56;12.55;;;5.18;;
42632;SDS011;28261;53.304;-6.284;2024-03-07T09:01:01;11.45;;;4.80;;
42632;SDS011;28261;53.304;-6.284;2024-03-07T09:03:06;12.20;;;5.25;;
42632;SDS011;28261;53.304;-6.284;2024-03-07T09:05:15;11.52;;;4.78;;
42632;SDS011;28261;53.304;-6.284;2024-03-07T09:07:20;6.55;;;4.40;;
42632;SDS011;28261;53.304;-6.284;2024-03-07T09:09:24;9.02;;;5.07;;
42632;SDS011;28261;53.304;-6.284;2024-03-07T09:11:27;13.82;;;5.07;;
42632;SDS011;28261;53.304;-6.284;2024-03-07T09:13:31;7.72;;;4.68;;
42632;SDS011;28261;53.304;-6.284;2024-03-07T09:15:34;12.40;;;4.95;;
42632;SDS011;28261;53.304;-6.284;2024-03-07T09:17:39;8.90;;;4.50;;
42632;SDS011;28261;53.304;-6.284;2024-03-07T09:19:44;8.32;;;4.50;;
42632;SDS011;28261;53.304;-6.284;2024-03-07T09:21:48;15.88;;;4.60;;
42632;SDS011;28261;53.304;-6.284;2024-03-07T09:25:57;8.05;;;4.20;;
42632;SDS011;28261;53.304;-6.284;2024-03-07T09:28:01;8.85;;;4.55;;
42632;SDS011;28261;53.304;-6.284;2024-03-07T09:30:06;10.57;;;4.55;;
42632;SDS011;28261;53.304;-6.284;2024-03-07T09:32:14;8.07;;;4.10;;
42632;SDS011;28261;53.304;-6.284;2024-03-07T09:34:19;8.00;;;4.38;;
42632;SDS011;28261;53.304;-6.284;2024-03-07T09:36:25;12.13;;;4.35;;
42632;SDS011;28261;53.304;-6.284;2024-03-07T09:38:29;8.50;;;3.53;;
42632;SDS011;28261;53.304;-6.284;2024-03-07T09:40:33;11.15;;;4.72;;
42632;SDS011;28261;53.304;-6.284;2024-03-07T09:42:41;10.05;;;4.35;;
42632;SDS011;28261;53.304;-6.284;2024-03-07T09:44:47;12.70;;;4.72;;
42632;SDS011;28261;53.304;-6.284;2024-03-07T09:46:54;9.20;;;4.38;;
42632;SDS011;28261;53.304;-6.284;2024-03-07T09:49:00;11.68;;;3.97;;
42632;SDS011;28261;53.304;-6.284;2024-03-07T09:51:04;6.25;;;4.05;;
42632;SDS011;28261;53.304;-6.284;2024-03-07T09:53:12;9.55;;;4.50;;
42632;SDS011;28261;53.304;-6.284;2024-03-07T09:55:19;10.77;;;4.35;;
42632;SDS011;28261;53.304;-6.284;2024-03-07T09:57:23;12.68;;;5.63;;
42632;SDS011;28261;53.304;-6.284;2024-03-07T09:59:30;8.73;;;4.32;;
42632;SDS011;28261;53.304;-6.284;2024-03-07T10:01:40;10.10;;;4.95;;
42632;SDS011;28261;53.304;-6.284;2024-03-07T10:03:47;13.23;;;4.93;;
42632;SDS011;28261;53.304;-6.284;2024-03-07T10:05:53;10.02;;;5.78;;
42632;SDS011;28261;53.304;-6.284;2024-03-07T10:07:58;10.98;;;4.78;;
42632;SDS011;28261;53.304;-6.284;2024-03-07T10:10:04;13.05;;;5.13;;
42632;SDS011;28261;53.304;-6.284;2024-03-07T10:14:17;14.15;;;5.65;;
42632;SDS011;28261;53.304;-6.284;2024-03-07T10:16:21;10.32;;;5.18;;
42632;SDS011;28261;53.304;-6.284;2024-03-07T10:18:25;15.90;;;5.90;;
42632;SDS011;28261;53.304;-6.284;2024-03-07T10:20:29;12.65;;;6.28;;
42632;SDS011;28261;53.304;-6.284;2024-03-07T10:22:34;10.38;;;5.80;;
42632;SDS011;28261;53.304;-6.284;2024-03-07T10:24:38;14.13;;;5.78;;
42632;SDS011;28261;53.304;-6.284;2024-03-07T10:26:43;11.57;;;5.78;;
42632;SDS011;28261;53.304;-6.284;2024-03-07T10:28:48;12.13;;;5.05;;
42632;SDS011;28261;53.304;-6.284;2024-03-07T10:30:51;13.70;;;6.38;;
42632;SDS011;28261;53.304;-6.284;2024-03-07T10:32:56;10.85;;;5.95;;
42632;SDS011;28261;53.304;-6.284;2024-03-07T10:35:03;9.23;;;4.82;;
42632;SDS011;28261;53.304;-6.284;2024-03-07T10:37:10;11.77;;;5.32;;
42632;SDS011;28261;53.304;-6.284;2024-03-07T10:39:17;12.18;;;6.10;;
42632;SDS011;28261;53.304;-6.284;2024-03-07T10:41:24;11.52;;;5.80;;
42632;SDS011;28261;53.304;-6.284;2024-03-07T10:43:33;13.10;;;5.90;;
42632;SDS011;28261;53.304;-6.284;2024-03-07T10:45:44;13.35;;;5.68;;
42632;SDS011;28261;53.304;-6.284;2024-03-07T10:47:50;13.50;;;6.15;;
42632;SDS011;28261;53.304;-6.284;2024-03-07T10:49:59;13.02;;;5.65;;
42632;SDS011;28261;53.304;-6.284;2024-03-07T10:52:17;12.95;;;5.82;;
42632;SDS011;28261;53.304;-6.284;2024-03-07T10:54:34;13.93;;;5.97;;
42632;SDS011;28261;53.304;-6.284;2024-03-07T10:56:56;10.40;;;4.47;;
42632;SDS011;28261;53.304;-6.284;2024-03-07T10:59:17;12.63;;;5.03;;
42632;SDS011;28261;53.304;-6.284;2024-03-07T11:01:22;15.00;;;5.90;;
42632;SDS011;28261;53.304;-6.284;2024-03-07T11:03:29;11.05;;;4.80;;
42632;SDS011;28261;53.304;-6.284;2024-03-07T11:05:34;14.00;;;5.68;;
42632;SDS011;28261;53.304;-6.284;2024-03-07T11:07:39;11.65;;;4.88;;
42632;SDS011;28261;53.304;-6.284;2024-03-07T11:09:44;12.25;;;5.50;;
42632;SDS011;28261;53.304;-6.284;2024-03-07T11:15:59;12.20;;;4.82;;
42632;SDS011;28261;53.304;-6.284;2024-03-07T11:18:05;13.13;;;6.57;;
42632;SDS011;28261;53.304;-6.284;2024-03-07T11:20:19;12.57;;;5.57;;
42632;SDS011;28261;53.304;-6.284;2024-03-07T11:22:30;15.40;;;6.07;;
42632;SDS011;28261;53.304;-6.284;2024-03-07T11:24:34;14.77;;;6.00;;
42632;SDS011;28261;53.304;-6.284;2024-03-07T11:26:38;11.80;;;5.50;;
42632;SDS011;28261;53.304;-6.284;2024-03-07T11:28:42;10.75;;;5.32;;
42632;SDS011;28261;53.304;-6.284;2024-03-07T11:30:49;13.77;;;6.10;;
42632;SDS011;28261;53.304;-6.284;2024-03-07T11:32:55;11.00;;;5.80;;
42632;SDS011;28261;53.304;-6.284;2024-03-07T11:35:03;11.30;;;6.10;;
42632;SDS011;28261;53.304;-6.284;2024-03-07T11:37:09;13.57;;;6.50;;
42632;SDS011;28261;53.304;-6.284;2024-03-07T11:41:45;13.15;;;5.28;;
42632;SDS011;28261;53.304;-6.284;2024-03-07T11:43:52;12.02;;;6.18;;
42632;SDS011;28261;53.304;-6.284;2024-03-07T11:45:57;11.10;;;5.88;;
42632;SDS011;28261;53.304;-6.284;2024-03-07T11:48:04;12.23;;;6.68;;
42632;SDS011;28261;53.304;-6.284;2024-03-07T11:50:12;12.23;;;5.72;;
42632;SDS011;28261;53.304;-6.284;2024-03-07T11:52:16;15.48;;;5.60;;
42632;SDS011;28261;53.304;-6.284;2024-03-07T11:54:20;13.65;;;6.32;;
42632;SDS011;28261;53.304;-6.284;2024-03-07T11:56:29;15.50;;;7.10;;
42632;SDS011;28261;53.304;-6.284;2024-03-07T11:58:33;10.15;;;5.90;;
42632;SDS011;28261;53.304;-6.284;2024-03-07T12:01:06;11.82;;;5.32;;
42632;SDS011;28261;53.304;-6.284;2024-03-07T12:03:14;14.20;;;5.68;;
42632;SDS011;28261;53.304;-6.284;2024-03-07T12:05:23;12.88;;;6.55;;
42632;SDS011;28261;53.304;-6.284;2024-03-07T12:07:29;11.73;;;5.93;;
42632;SDS011;28261;53.304;-6.284;2024-03-07T12:09:32;12.80;;;5.75;;
42632;SDS011;28261;53.304;-6.284;2024-03-07T12:13:44;9.85;;;6.25;;
42632;SDS011;28261;53.304;-6.284;2024-03-07T12:15:49;14.63;;;5.45;;
42632;SDS011;28261;53.304;-6.284;2024-03-07T12:17:54;13.93;;;6.15;;
42632;SDS011;28261;53.304;-6.284;2024-03-07T12:22:27;13.98;;;6.57;;
42632;SDS011;28261;53.304;-6.284;2024-03-07T12:24:32;11.10;;;5.38;;
42632;SDS011;28261;53.304;-6.284;2024-03-07T12:26:37;13.48;;;6.00;;
42632;SDS011;28261;53.304;-6.284;2024-03-07T12:28:41;13.60;;;6.47;;
42632;SDS011;28261;53.304;-6.284;2024-03-07T12:30:49;13.30;;;6.38;;
42632;SDS011;28261;53.304;-6.284;2024-03-07T12:32:54;11.90;;;5.38;;
42632;SDS011;28261;53.304;-6.284;2024-03-07T12:34:57;16.58;;;6.25;;
42632;SDS011;28261;53.304;-6.284;2024-03-07T12:37:02;15.48;;;6.70;;
42632;SDS011;28261;53.304;-6.284;2024-03-07T12:39:06;13.18;;;6.82;;